createdAt,value
2022-08-01T00:00:50.545Z,1.67
2022-08-01T00:03:18.311Z,1.30
2022-08-01T00:05:47.752Z,1.33
2022-08-01T00:08:15.516Z,1.67
2022-08-01T00:10:43.302Z,1.50
2022-08-01T00:13:11.398Z,1.58
2022-08-01T00:15:39.380Z,1.50
2022-08-01T00:18:07.200Z,1.60
2022-08-01T00:20:34.979Z,1.63
2022-08-01T00:23:06.023Z,1.58
2022-08-01T00:25:34.705Z,2.00
2022-08-01T00:28:04.224Z,1.45
2022-08-01T00:30:32.565Z,1.58
2022-08-01T00:33:00.445Z,1.50
2022-08-01T00:35:28.545Z,1.85
2022-08-01T00:37:56.569Z,1.80
2022-08-01T00:40:25.652Z,1.67
2022-08-01T00:42:53.723Z,1.60
2022-08-01T00:45:21.851Z,1.40
2022-08-01T00:47:55.316Z,1.30
2022-08-01T00:50:24.816Z,1.70
2022-08-01T00:52:53.259Z,1.50
2022-08-01T00:55:22.040Z,1.20
2022-08-01T00:58:04.905Z,1.60
2022-08-01T01:00:52.799Z,1.58
2022-08-01T01:03:49.368Z,1.50
2022-08-01T01:06:24.572Z,1.90
2022-08-01T01:09:04.193Z,2.03
2022-08-01T01:11:45.240Z,1.85
2022-08-01T01:14:23.100Z,2.08
2022-08-01T01:16:52.676Z,2.20
2022-08-01T01:19:30.102Z,1.92
2022-08-01T01:22:21.374Z,2.00
2022-08-01T01:25:13.547Z,1.70
2022-08-01T01:27:59.196Z,1.80
2022-08-01T01:30:32.544Z,2.25
2022-08-01T01:33:04.214Z,2.05
2022-08-01T01:35:34.944Z,1.80
2022-08-01T01:38:07.208Z,1.88
2022-08-01T01:40:35.877Z,1.77
2022-08-01T01:43:03.640Z,1.80
2022-08-01T01:45:33.742Z,2.05
2022-08-01T01:48:03.813Z,2.28
2022-08-01T01:50:32.574Z,2.25
2022-08-01T01:53:02.301Z,2.38
2022-08-01T01:55:31.922Z,2.30
2022-08-01T01:58:01.590Z,1.98
2022-08-01T02:00:32.530Z,2.30
2022-08-01T02:03:03.579Z,2.10
2022-08-01T02:05:31.983Z,2.20
2022-08-01T02:08:00.408Z,1.98
2022-08-01T02:10:29.127Z,1.85
2022-08-01T02:12:59.376Z,1.63
2022-08-01T02:15:28.265Z,1.40
2022-08-01T02:17:59.570Z,1.77
2022-08-01T02:20:28.956Z,1.48
2022-08-01T02:23:02.355Z,2.30
2022-08-01T02:25:36.103Z,1.65
2022-08-01T02:28:09.072Z,1.80
2022-08-01T02:30:39.683Z,1.83
2022-08-01T02:33:16.140Z,1.52
2022-08-01T02:36:30.452Z,1.73
2022-08-01T02:38:37.644Z,2.08
2022-08-01T02:41:10.329Z,1.73
2022-08-01T02:43:41.084Z,2.00
2022-08-01T02:46:12.487Z,1.90
2022-08-01T02:48:45.604Z,2.17
2022-08-01T02:51:15.489Z,1.92
2022-08-01T02:53:44.958Z,2.50
2022-08-01T02:56:15.424Z,2.10
2022-08-01T02:58:44.727Z,2.35
2022-08-01T03:01:15.242Z,2.30
2022-08-01T03:03:45.439Z,2.38
2022-08-01T03:06:14.730Z,2.30
2022-08-01T03:08:44.710Z,2.25
2022-08-01T03:11:14.255Z,1.90
2022-08-01T03:13:43.714Z,2.10
2022-08-01T03:16:13.100Z,1.80
2022-08-01T03:18:42.701Z,1.88
2022-08-01T03:21:13.854Z,1.60
2022-08-01T03:23:43.880Z,1.45
2022-08-01T03:26:12.763Z,1.73
2022-08-01T03:28:42.222Z,1.50
2022-08-01T03:31:11.110Z,1.83
2022-08-01T03:33:45.364Z,1.58
2022-08-01T03:36:16.000Z,1.65
2022-08-01T03:38:45.888Z,2.05
2022-08-01T03:41:17.730Z,1.80
2022-08-01T03:43:51.430Z,1.67
2022-08-01T03:46:25.330Z,1.70
2022-08-01T03:48:57.121Z,1.77
2022-08-01T03:51:27.051Z,1.92
2022-08-01T03:53:57.239Z,1.45
2022-08-01T03:56:26.095Z,1.45
2022-08-01T03:58:54.582Z,1.90
2022-08-01T04:01:22.819Z,1.80
2022-08-01T04:03:51.072Z,1.58
2022-08-01T04:06:18.997Z,1.40
2022-08-01T04:08:56.605Z,1.75
2022-08-01T04:11:26.093Z,1.38
2022-08-01T04:13:55.347Z,1.30
2022-08-01T04:16:23.714Z,1.30
2022-08-01T04:18:51.608Z,1.48
2022-08-01T04:21:22.616Z,1.63
2022-08-01T04:23:54.336Z,1.30
2022-08-01T04:26:24.203Z,0.93
2022-08-01T04:28:55.733Z,1.10
2022-08-01T04:31:26.963Z,0.80
2022-08-01T04:33:56.897Z,1.00
2022-08-01T04:36:26.496Z,1.00
2022-08-01T04:39:01.426Z,0.80
2022-08-01T04:41:31.689Z,1.13
2022-08-01T04:44:00.454Z,0.90
2022-08-01T04:46:30.663Z,1.27
2022-08-01T04:48:59.153Z,1.20
2022-08-01T04:51:28.048Z,1.25
2022-08-01T04:53:58.724Z,1.30
2022-08-01T04:56:26.499Z,1.38
2022-08-01T04:59:19.805Z,1.60
2022-08-01T05:01:51.405Z,1.45
2022-08-01T05:04:19.508Z,1.50
2022-08-01T05:06:47.298Z,1.58
2022-08-01T05:09:17.007Z,1.50
2022-08-01T05:11:44.865Z,1.70
2022-08-01T05:14:12.598Z,1.40
2022-08-01T05:16:40.341Z,1.67
2022-08-01T05:19:09.126Z,1.55
2022-08-01T05:21:37.377Z,1.60
2022-08-01T05:24:05.860Z,1.75
2022-08-01T05:26:35.006Z,1.52
2022-08-01T05:29:04.302Z,1.70
2022-08-01T05:31:35.055Z,1.50
2022-08-01T05:34:03.012Z,1.80
2022-08-01T05:36:30.851Z,1.67
2022-08-01T05:38:58.618Z,1.80
2022-08-01T05:41:27.794Z,2.00
2022-08-01T05:43:57.121Z,2.22
2022-08-01T05:46:26.221Z,1.85
2022-08-01T05:48:55.615Z,1.90
2022-08-01T05:51:23.418Z,2.03
2022-08-01T05:53:51.176Z,2.03
2022-08-01T05:56:19.081Z,1.80
2022-08-01T05:58:46.820Z,1.77
2022-08-01T06:01:15.881Z,1.80
2022-08-01T06:03:43.632Z,2.00
2022-08-01T06:06:11.584Z,2.00
2022-08-01T06:08:39.398Z,2.10
2022-08-01T06:11:07.682Z,2.30
2022-08-01T06:13:48.256Z,2.45
2022-08-01T06:16:18.337Z,2.30
2022-08-01T06:18:46.122Z,2.22
2022-08-01T06:21:13.843Z,2.05
2022-08-01T06:23:42.532Z,1.80
2022-08-01T06:26:11.176Z,1.98
2022-08-01T06:28:39.411Z,2.20
2022-08-01T06:31:07.376Z,1.90
2022-08-01T06:33:36.435Z,1.58
2022-08-01T06:36:04.776Z,1.65
2022-08-01T06:38:32.576Z,2.00
2022-08-01T06:41:00.321Z,1.80
2022-08-01T06:43:28.085Z,1.70
2022-08-01T06:45:55.838Z,1.55
2022-08-01T06:48:23.737Z,1.30
2022-08-01T06:51:08.621Z,1.20
2022-08-01T06:53:37.662Z,1.65
2022-08-01T06:56:06.353Z,1.40
2022-08-01T06:58:35.385Z,1.80
2022-08-01T07:01:03.521Z,2.30
2022-08-01T07:03:52.785Z,2.58
2022-08-01T07:06:22.027Z,2.35
2022-08-01T07:08:49.766Z,3.22
2022-08-01T07:11:17.841Z,3.45
2022-08-01T07:13:46.731Z,3.20
2022-08-01T07:16:14.796Z,3.30
2022-08-01T07:18:42.622Z,3.35
2022-08-01T07:21:38.243Z,3.50
2022-08-01T07:23:59.482Z,2.92
2022-08-01T07:26:28.397Z,1.13
2022-08-01T07:28:56.339Z,0.70
2022-08-01T07:31:25.823Z,1.00
2022-08-01T07:33:56.297Z,0.90
2022-08-01T07:36:24.256Z,0.90
2022-08-01T07:38:51.987Z,1.10
2022-08-01T07:41:21.084Z,1.27
2022-08-01T07:44:08.787Z,1.50
2022-08-01T07:46:36.692Z,1.65
2022-08-01T07:49:04.518Z,1.60
2022-08-01T07:51:32.252Z,1.75
2022-08-01T07:53:59.980Z,1.23
2022-08-01T07:56:29.044Z,1.40
2022-08-01T07:58:56.769Z,1.27
2022-08-01T08:01:24.590Z,1.20
2022-08-01T08:03:52.368Z,1.30
2022-08-01T08:06:20.110Z,1.02
2022-08-01T08:08:47.837Z,0.60
2022-08-01T08:11:15.558Z,0.90
2022-08-01T08:13:44.606Z,0.68
2022-08-01T08:16:12.316Z,0.80
2022-08-01T08:18:40.181Z,0.68
2022-08-01T08:21:07.915Z,0.63
2022-08-01T08:23:52.999Z,0.70
2022-08-01T08:26:20.720Z,0.90
2022-08-01T08:28:49.796Z,0.85
2022-08-01T08:31:25.393Z,0.80
2022-08-01T08:34:05.240Z,0.60
2022-08-01T08:36:33.717Z,0.55
2022-08-01T08:39:02.761Z,0.50
2022-08-01T08:41:36.952Z,0.30
2022-08-01T08:44:10.458Z,0.60
2022-08-01T08:46:43.483Z,0.40
2022-08-01T08:49:12.882Z,0.50
2022-08-01T08:51:42.984Z,0.65
2022-08-01T08:54:13.611Z,0.60
2022-08-01T08:56:42.264Z,0.50
2022-08-01T08:59:14.693Z,0.50
2022-08-01T09:01:43.829Z,0.68
2022-08-01T09:04:12.427Z,0.60
2022-08-01T09:06:40.728Z,0.40
2022-08-01T09:09:10.528Z,0.52
2022-08-01T09:11:38.812Z,0.90
2022-08-01T09:14:09.248Z,0.50
2022-08-01T09:16:45.212Z,0.65
2022-08-01T09:19:40.551Z,0.55
2022-08-01T09:22:09.035Z,0.68
2022-08-01T09:24:37.749Z,0.80
2022-08-01T09:27:20.979Z,0.70
2022-08-01T09:30:01.792Z,0.60
2022-08-01T09:32:36.265Z,1.08
2022-08-01T09:35:24.481Z,1.15
2022-08-01T09:38:15.458Z,0.70
2022-08-01T09:40:51.064Z,0.60
2022-08-01T09:43:19.287Z,0.68
2022-08-01T09:45:50.367Z,0.60
2022-08-01T09:48:27.861Z,0.70
2022-08-01T09:51:04.945Z,0.50
2022-08-01T09:53:51.226Z,1.55
2022-08-01T09:56:21.944Z,0.60
2022-08-01T09:58:59.256Z,0.60
2022-08-01T10:01:37.292Z,0.70
2022-08-01T10:04:10.964Z,0.50
2022-08-01T10:06:40.136Z,0.40
2022-08-01T10:09:14.277Z,0.50
2022-08-01T10:11:43.542Z,0.50
2022-08-01T10:14:14.733Z,0.50
2022-08-01T10:16:53.184Z,0.60
2022-08-01T10:19:24.978Z,0.50
2022-08-01T10:22:00.068Z,0.40
2022-08-01T10:24:30.448Z,0.52
2022-08-01T10:27:06.075Z,0.40
2022-08-01T10:29:46.040Z,0.60
2022-08-01T10:32:28.948Z,0.40
2022-08-01T10:34:58.685Z,0.43
2022-08-01T10:37:27.165Z,0.50
2022-08-01T10:40:08.811Z,0.50
2022-08-01T10:42:45.135Z,0.32
2022-08-01T10:45:15.365Z,0.40
2022-08-01T10:47:52.378Z,0.30
2022-08-01T10:50:26.759Z,0.60
2022-08-01T10:53:24.308Z,0.32
2022-08-01T10:56:02.774Z,0.50
2022-08-01T10:58:38.033Z,0.40
2022-08-01T11:01:25.931Z,0.40
2022-08-01T11:04:06.919Z,0.50
2022-08-01T11:06:55.743Z,0.40
2022-08-01T11:09:36.672Z,0.40
2022-08-01T11:15:14.906Z,0.45
2022-08-01T11:17:48.396Z,0.30
2022-08-01T11:20:17.963Z,0.38
2022-08-01T11:23:26.164Z,0.45
2022-08-01T11:26:15.276Z,0.50
2022-08-01T11:29:10.832Z,0.47
2022-08-01T11:31:37.749Z,0.60
2022-08-01T11:34:06.110Z,0.40
2022-08-01T11:36:57.644Z,0.43
2022-08-01T11:39:21.898Z,0.45
2022-08-01T11:41:51.582Z,0.40
2022-08-01T11:44:24.753Z,0.50
2022-08-01T11:47:00.228Z,0.40
2022-08-01T11:49:35.358Z,0.47
2022-08-01T11:52:07.115Z,0.38
2022-08-01T11:54:37.096Z,0.47
2022-08-01T11:57:08.265Z,0.40
2022-08-01T11:59:41.151Z,0.40
2022-08-01T12:02:30.594Z,0.45
2022-08-01T12:05:00.278Z,0.30
2022-08-01T12:07:29.926Z,0.35
2022-08-01T12:10:02.715Z,0.30
2022-08-01T12:12:33.340Z,0.32
2022-08-01T12:15:02.540Z,0.30
2022-08-01T12:17:31.839Z,0.20
2022-08-01T12:19:59.648Z,0.30
2022-08-01T12:22:27.814Z,0.20
2022-08-01T12:24:56.681Z,0.40
2022-08-01T12:27:35.275Z,0.22
2022-08-01T12:30:07.709Z,0.30
2022-08-01T12:32:37.588Z,0.30
2022-08-01T12:35:07.670Z,0.20
2022-08-01T12:37:38.053Z,0.40
2022-08-01T12:40:12.650Z,0.30
2022-08-01T12:42:41.494Z,0.30
2022-08-01T12:45:14.122Z,0.40
2022-08-01T12:47:42.329Z,0.22
2022-08-01T12:50:14.185Z,0.30
2022-08-01T12:55:14.736Z,0.25
2022-08-01T12:57:46.477Z,0.63
2022-08-01T13:02:46.698Z,0.40
2022-08-01T13:05:16.504Z,0.30
2022-08-01T13:07:50.382Z,0.40
2022-08-01T13:10:28.604Z,0.30
2022-08-01T13:13:00.202Z,0.43
2022-08-01T13:15:33.089Z,0.30
2022-08-01T13:18:02.422Z,0.40
2022-08-01T13:20:34.061Z,0.32
2022-08-01T13:23:15.815Z,0.40
2022-08-01T13:25:51.257Z,0.30
2022-08-01T13:28:20.474Z,0.30
2022-08-01T13:31:01.305Z,0.40
2022-08-01T13:33:30.389Z,0.30
2022-08-01T13:35:58.693Z,0.60
2022-08-01T13:38:44.196Z,0.50
2022-08-01T13:41:11.933Z,0.40
2022-08-01T13:43:58.564Z,0.38
2022-08-01T13:46:29.613Z,0.30
2022-08-01T13:48:57.741Z,0.40
2022-08-01T13:51:33.155Z,0.30
2022-08-01T13:54:01.132Z,0.40
2022-08-01T13:56:29.919Z,0.50
2022-08-01T13:58:58.717Z,0.40
2022-08-01T14:01:32.293Z,0.30
2022-08-01T14:04:02.582Z,0.50
2022-08-01T14:06:30.649Z,0.30
2022-08-01T14:08:58.708Z,0.47
2022-08-01T14:11:26.678Z,0.43
2022-08-01T14:14:04.890Z,0.52
2022-08-01T14:16:38.520Z,0.50
2022-08-01T14:19:06.337Z,0.47
2022-08-01T14:21:34.064Z,0.40
2022-08-01T14:24:01.885Z,0.50
2022-08-01T14:26:29.760Z,0.40
2022-08-01T14:28:57.576Z,0.68
2022-08-01T14:31:25.327Z,0.68
2022-08-01T14:33:54.443Z,0.43
2022-08-01T14:36:30.139Z,0.50
2022-08-01T14:39:00.810Z,0.55
2022-08-01T14:41:30.693Z,0.40
2022-08-01T14:44:00.612Z,0.50
2022-08-01T14:46:28.647Z,0.50
2022-08-01T14:49:00.694Z,0.50
2022-08-01T14:51:28.451Z,0.55
2022-08-01T14:53:56.748Z,0.63
2022-08-01T14:56:25.283Z,0.60
2022-08-01T14:58:53.633Z,0.40
2022-08-01T15:01:21.570Z,0.40
2022-08-01T15:03:51.103Z,0.30
2022-08-01T15:06:20.261Z,0.50
2022-08-01T15:08:48.105Z,0.70
2022-08-01T15:11:15.833Z,0.65
2022-08-01T15:13:43.569Z,0.63
2022-08-01T15:16:12.140Z,0.40
2022-08-01T15:18:40.366Z,0.77
2022-08-01T15:21:11.608Z,0.50
2022-08-01T15:23:43.560Z,0.45
2022-08-01T15:26:14.609Z,0.50
2022-08-01T15:28:42.382Z,0.40
2022-08-01T15:31:13.917Z,0.60
2022-08-01T15:33:42.053Z,0.70
2022-08-01T15:36:12.356Z,0.50
2022-08-01T15:38:44.523Z,0.52
2022-08-01T15:41:12.302Z,0.40
2022-08-01T15:43:44.341Z,0.70
2022-08-01T15:46:13.204Z,0.55
2022-08-01T15:48:41.604Z,0.88
2022-08-01T15:51:09.474Z,0.60
2022-08-01T15:53:37.305Z,0.50
2022-08-01T15:56:06.564Z,0.50
2022-08-01T15:58:34.777Z,0.50
2022-08-01T16:01:02.579Z,0.50
2022-08-01T16:03:30.394Z,0.70
2022-08-01T16:05:58.172Z,0.55
2022-08-01T16:08:26.248Z,0.65
2022-08-01T16:10:54.068Z,0.57
2022-08-01T16:13:23.278Z,0.80
2022-08-01T16:15:51.111Z,0.75
2022-08-01T16:18:18.980Z,0.70
2022-08-01T16:20:46.718Z,0.60
2022-08-01T16:23:14.904Z,0.68
2022-08-01T16:25:43.725Z,0.55
2022-08-01T16:28:11.554Z,0.80
2022-08-01T16:30:48.654Z,0.60
2022-08-01T16:33:46.813Z,0.65
2022-08-01T16:36:17.255Z,0.80
2022-08-01T16:38:45.693Z,0.68
2022-08-01T16:41:19.247Z,0.50
2022-08-01T16:43:53.802Z,0.68
2022-08-01T16:46:25.135Z,0.80
2022-08-01T16:48:53.363Z,0.77
2022-08-01T16:51:21.139Z,0.80
2022-08-01T16:53:49.094Z,0.70
2022-08-01T16:56:16.826Z,0.60
2022-08-01T16:58:45.138Z,0.75
2022-08-01T17:02:01.639Z,0.80
2022-08-01T17:04:02.281Z,0.90
2022-08-01T17:06:30.315Z,1.08
2022-08-01T17:08:58.381Z,0.80
2022-08-01T17:11:26.527Z,1.00
2022-08-01T17:13:54.451Z,0.82
2022-08-01T17:16:22.745Z,0.80
2022-08-01T17:18:50.612Z,0.77
2022-08-01T17:21:19.686Z,0.80
2022-08-01T17:23:47.423Z,1.13
2022-08-01T17:26:15.151Z,0.80
2022-08-01T17:28:43.634Z,0.77
2022-08-01T17:31:11.422Z,1.00
2022-08-01T17:33:45.839Z,0.80
2022-08-01T17:36:17.809Z,0.90
2022-08-01T17:38:47.076Z,1.30
2022-08-01T17:41:15.146Z,1.00
2022-08-01T17:43:44.249Z,1.05
2022-08-01T17:46:12.041Z,0.90
2022-08-01T17:48:39.836Z,0.90
2022-08-01T17:51:07.600Z,1.38
2022-08-01T17:53:35.562Z,1.15
2022-08-01T17:56:06.053Z,0.95
2022-08-01T17:58:51.789Z,1.13
2022-08-01T18:01:20.408Z,1.00
2022-08-01T18:03:49.087Z,0.90
2022-08-01T18:06:19.321Z,1.00
2022-08-01T18:08:48.536Z,1.13
2022-08-01T18:11:18.365Z,0.77
2022-08-01T18:13:49.064Z,0.90
2022-08-01T18:16:17.307Z,1.13
2022-08-01T18:18:45.059Z,1.25
2022-08-01T18:21:13.526Z,1.42
2022-08-01T18:23:51.011Z,1.08
2022-08-01T18:26:21.744Z,1.10
2022-08-01T18:28:49.808Z,0.80
2022-08-01T18:31:19.777Z,1.15
2022-08-01T18:33:47.948Z,1.10
2022-08-01T18:36:31.624Z,1.20
2022-08-01T18:39:04.285Z,0.90
2022-08-01T18:41:35.452Z,0.98
2022-08-01T18:44:09.887Z,1.45
2022-08-01T18:46:39.676Z,1.52
2022-08-01T18:49:09.870Z,1.00
2022-08-01T18:51:45.880Z,0.98
2022-08-01T18:54:14.909Z,0.90
2022-08-01T18:56:46.816Z,1.48
2022-08-01T19:01:48.486Z,1.20
2022-08-01T19:04:16.577Z,1.02
2022-08-01T19:06:47.422Z,1.42
2022-08-01T19:09:20.767Z,1.53
2022-08-01T19:11:50.288Z,1.30
2022-08-01T19:14:18.344Z,1.60
2022-08-01T19:16:46.059Z,1.33
2022-08-01T19:19:14.082Z,1.67
2022-08-01T19:21:44.959Z,1.23
2022-08-01T19:24:23.063Z,1.40
2022-08-01T19:26:54.858Z,1.42
2022-08-01T19:29:35.459Z,1.50
2022-08-01T19:32:06.690Z,1.33
2022-08-01T19:34:37.887Z,1.60
2022-08-01T19:37:06.181Z,1.40
2022-08-01T19:39:34.241Z,1.45
2022-08-01T19:42:04.124Z,1.20
2022-08-01T19:44:32.413Z,1.40
2022-08-01T19:47:01.516Z,1.33
2022-08-01T19:49:29.421Z,1.63
2022-08-01T19:52:01.267Z,1.45
2022-08-01T19:54:38.300Z,1.48
2022-08-01T19:57:09.140Z,1.90
2022-08-01T19:59:37.699Z,1.27
2022-08-01T20:02:07.228Z,1.30
2022-08-01T20:04:35.948Z,1.48
2022-08-01T20:07:04.749Z,1.67
2022-08-01T20:09:33.375Z,1.20
2022-08-01T20:12:01.181Z,1.15
2022-08-01T20:14:30.451Z,1.40
2022-08-01T20:16:58.360Z,1.63
2022-08-01T20:19:29.348Z,1.30
2022-08-01T20:22:02.446Z,1.30
2022-08-01T20:24:39.605Z,1.40
2022-08-01T20:27:11.008Z,1.23
2022-08-01T20:29:40.857Z,1.48
2022-08-01T20:32:09.359Z,1.40
2022-08-01T20:34:39.299Z,1.17
2022-08-01T20:37:09.232Z,1.48
2022-08-01T20:39:43.945Z,1.25
2022-08-01T20:42:12.390Z,1.70
2022-08-01T20:44:41.897Z,1.30
2022-08-01T20:47:10.237Z,1.40
2022-08-01T20:49:38.805Z,1.40
2022-08-01T20:52:12.197Z,1.20
2022-08-01T20:54:40.536Z,1.20
2022-08-01T20:57:14.856Z,1.13
2022-08-01T20:59:56.953Z,1.50
2022-08-01T21:02:35.139Z,1.50
2022-08-01T21:05:06.362Z,1.40
2022-08-01T21:07:37.257Z,1.90
2022-08-01T21:10:08.072Z,1.20
2022-08-01T21:12:44.808Z,1.30
2022-08-01T21:15:19.792Z,1.30
2022-08-01T21:17:56.769Z,1.67
2022-08-01T21:20:29.369Z,1.00
2022-08-01T21:23:07.546Z,1.63
2022-08-01T21:25:40.537Z,1.30
2022-08-01T21:28:15.003Z,1.23
2022-08-01T21:30:55.574Z,1.40
2022-08-01T21:33:26.579Z,1.33
2022-08-01T21:35:56.452Z,1.65
2022-08-01T21:38:25.067Z,1.50
2022-08-01T21:40:54.526Z,1.30
2022-08-01T21:43:23.733Z,1.40
2022-08-01T21:45:57.577Z,1.88
2022-08-01T21:48:30.873Z,1.35
2022-08-01T21:51:02.055Z,1.80
2022-08-01T21:53:38.614Z,1.52
2022-08-01T21:56:22.263Z,1.60
2022-08-01T21:58:57.108Z,1.27
2022-08-01T22:01:52.105Z,1.60
2022-08-01T22:04:27.587Z,1.20
2022-08-01T22:06:56.475Z,1.33
2022-08-01T22:09:24.565Z,1.83
2022-08-01T22:11:59.538Z,1.60
2022-08-01T22:14:33.508Z,1.48
2022-08-01T22:17:02.797Z,2.08
2022-08-01T22:19:44.400Z,1.67
2022-08-01T22:22:45.155Z,2.15
2022-08-01T22:25:01.441Z,2.30
2022-08-01T22:28:06.020Z,2.00
2022-08-01T22:30:18.510Z,1.98
2022-08-01T22:33:15.443Z,2.63
2022-08-01T22:35:39.983Z,1.77
2022-08-01T22:38:09.690Z,2.00
2022-08-01T22:40:44.568Z,3.15
2022-08-01T22:43:20.626Z,2.22
2022-08-01T22:45:55.702Z,2.67
2022-08-01T22:48:34.751Z,3.05
2022-08-01T22:51:06.954Z,2.35
2022-08-01T22:53:43.606Z,2.55
2022-08-01T22:56:12.557Z,1.92
2022-08-01T22:58:41.446Z,2.20
2022-08-01T23:01:13.567Z,2.35
2022-08-01T23:03:52.032Z,2.55
2022-08-01T23:06:25.088Z,2.10
2022-08-01T23:08:55.602Z,2.08
2022-08-01T23:11:24.635Z,2.00
2022-08-01T23:13:53.587Z,2.20
2022-08-01T23:16:22.729Z,2.05
2022-08-01T23:18:55.046Z,2.05
2022-08-01T23:21:24.061Z,1.88
2022-08-01T23:23:52.247Z,2.00
2022-08-01T23:26:20.851Z,1.80
2022-08-01T23:28:48.964Z,1.80
2022-08-01T23:31:17.712Z,2.63
2022-08-01T23:33:45.446Z,1.98
2022-08-01T23:36:17.336Z,1.77
2022-08-01T23:38:45.860Z,2.25
2022-08-01T23:41:15.796Z,3.95
2022-08-01T23:43:52.006Z,6.28
2022-08-01T23:46:20.308Z,5.50
2022-08-01T23:48:48.052Z,7.38
2022-08-01T23:51:24.269Z,5.78
2022-08-01T23:53:53.216Z,4.50
2022-08-01T23:56:25.638Z,4.43
2022-08-01T23:58:54.642Z,4.20
